TimeCST,TemperatureF,Dew PointF,Humidity,Sea Level PressureIn,VisibilityMPH,Wind Direction,Wind SpeedMPH,Gust SpeedMPH,PrecipitationIn,Events,Conditions,WindDirDegrees,DateUTC
12:15 AM,12.2,8.6,85,30.42,10.0,West,5.8,-,N/A,,Clear,260,2012-11-27 06:15:00
12:35 AM,12.2,8.6,85,30.42,10.0,WSW,6.9,-,N/A,,Clear,250,2012-11-27 06:35:00
12:55 AM,12.2,8.6,85,30.41,10.0,Calm,Calm,-,N/A,,Clear,0,2012-11-27 06:55:00
1:15 AM,10.4,8.6,92,30.41,10.0,Calm,Calm,-,N/A,,Clear,0,2012-11-27 07:15:00
1:55 AM,12.2,8.6,85,30.39,10.0,SSW,5.8,-,N/A,,Clear,210,2012-11-27 07:55:00
2:15 AM,14.0,10.4,86,30.38,10.0,SSW,5.8,-,N/A,,Clear,210,2012-11-27 08:15:00
2:35 AM,12.2,8.6,85,30.38,10.0,SSW,6.9,-,N/A,,Clear,200,2012-11-27 08:35:00
2:55 AM,12.2,8.6,85,30.39,10.0,SSW,5.8,-,N/A,,Clear,210,2012-11-27 08:55:00
3:15 AM,12.2,8.6,85,30.38,10.0,SSW,5.8,-,N/A,,Clear,210,2012-11-27 09:15:00
3:35 AM,12.2,8.6,85,30.37,10.0,SW,6.9,-,N/A,,Clear,220,2012-11-27 09:35:00
3:55 AM,12.2,8.6,85,30.36,10.0,SSW,6.9,-,N/A,,Clear,210,2012-11-27 09:55:00
4:15 AM,14.0,10.4,86,30.35,10.0,SSW,4.6,-,N/A,,Clear,210,2012-11-27 10:15:00
4:35 AM,14.0,10.4,86,30.33,10.0,SSW,5.8,-,N/A,,Clear,210,2012-11-27 10:35:00
4:55 AM,14.0,10.4,86,30.33,10.0,SW,8.1,-,N/A,,Clear,230,2012-11-27 10:55:00
5:15 AM,14.0,10.4,86,30.32,10.0,SW,8.1,-,N/A,,Clear,220,2012-11-27 11:15:00
5:35 AM,15.8,12.2,86,30.33,10.0,SW,9.2,-,N/A,,Clear,220,2012-11-27 11:35:00
5:55 AM,15.8,12.2,86,30.32,10.0,SSW,8.1,-,N/A,,Clear,200,2012-11-27 11:55:00
6:15 AM,14.0,10.4,86,30.32,10.0,SSW,6.9,-,N/A,,Clear,210,2012-11-27 12:15:00
6:35 AM,14.0,10.4,86,30.31,10.0,South,6.9,-,N/A,,Clear,190,2012-11-27 12:35:00
6:55 AM,14.0,10.4,86,30.31,10.0,SSW,9.2,-,N/A,,Clear,200,2012-11-27 12:55:00
7:15 AM,15.8,12.2,86,30.31,10.0,SSW,6.9,-,N/A,,Clear,200,2012-11-27 13:15:00
7:35 AM,15.8,12.2,86,30.31,10.0,SSW,8.1,-,N/A,,Clear,200,2012-11-27 13:35:00
7:55 AM,17.6,14.0,86,30.29,10.0,South,10.4,-,N/A,,Clear,190,2012-11-27 13:55:00
8:15 AM,17.6,14.0,86,30.29,10.0,SSW,11.5,-,N/A,,Clear,200,2012-11-27 14:15:00
8:35 AM,19.4,15.8,86,30.28,10.0,SSW,11.5,-,N/A,,Clear,210,2012-11-27 14:35:00
8:55 AM,21.2,17.6,86,30.29,10.0,SSW,11.5,-,N/A,,Clear,210,2012-11-27 14:55:00
9:15 AM,23.0,19.4,86,30.29,10.0,SSW,13.8,-,N/A,,Clear,210,2012-11-27 15:15:00
9:35 AM,24.8,19.4,80,30.28,10.0,SSW,12.7,-,N/A,,Clear,210,2012-11-27 15:35:00
9:55 AM,26.6,23.0,86,30.28,10.0,SSW,13.8,-,N/A,,Clear,210,2012-11-27 15:55:00
10:15 AM,30.2,24.8,80,30.27,10.0,SSW,16.1,21.9,N/A,,Clear,210,2012-11-27 16:15:00
10:35 AM,32.0,24.8,75,30.26,10.0,SSW,18.4,-,N/A,,Clear,210,2012-11-27 16:35:00
10:55 AM,32.0,24.8,75,30.25,10.0,SW,19.6,-,N/A,,Clear,220,2012-11-27 16:55:00
11:15 AM,35.6,26.6,70,30.24,10.0,SSW,19.6,24.2,N/A,,Clear,210,2012-11-27 17:15:00
11:35 AM,37.4,26.6,65,30.23,10.0,SSW,21.9,25.3,N/A,,Clear,210,2012-11-27 17:35:00
11:55 AM,37.4,24.8,60,30.21,10.0,SW,25.3,-,N/A,,Clear,220,2012-11-27 17:55:00
12:15 PM,37.4,24.8,60,30.19,10.0,SSW,24.2,27.6,N/A,,Clear,210,2012-11-27 18:15:00
12:35 PM,41.0,24.8,53,30.18,10.0,SW,19.6,27.6,N/A,,Clear,220,2012-11-27 18:35:00
12:55 PM,41.0,24.8,53,30.18,10.0,SW,18.4,25.3,N/A,,Clear,230,2012-11-27 18:55:00
1:15 PM,41.0,24.8,53,30.17,10.0,SW,17.3,-,N/A,,Clear,230,2012-11-27 19:15:00
1:35 PM,42.8,26.6,53,30.16,10.0,SW,19.6,26.5,N/A,,Clear,230,2012-11-27 19:35:00
1:55 PM,44.6,26.6,49,30.16,10.0,SW,16.1,21.9,N/A,,Clear,230,2012-11-27 19:55:00
2:15 PM,44.6,26.6,49,30.15,10.0,WSW,19.6,27.6,N/A,,Clear,240,2012-11-27 20:15:00
2:35 PM,44.6,26.6,49,30.16,10.0,WSW,15.0,21.9,N/A,,Clear,240,2012-11-27 20:35:00
2:55 PM,46.4,26.6,46,30.15,10.0,WSW,17.3,-,N/A,,Clear,250,2012-11-27 20:55:00
3:15 PM,44.6,26.6,49,30.15,10.0,WSW,15.0,-,N/A,,Clear,240,2012-11-27 21:15:00
3:35 PM,44.6,26.6,49,30.15,10.0,West,15.0,-,N/A,,Clear,260,2012-11-27 21:35:00
3:55 PM,44.6,24.8,46,30.16,10.0,WSW,13.8,-,N/A,,Clear,240,2012-11-27 21:55:00
4:15 PM,44.6,24.8,46,30.17,10.0,West,11.5,-,N/A,,Clear,260,2012-11-27 22:15:00
4:35 PM,42.8,24.8,49,30.17,10.0,WSW,8.1,-,N/A,,Clear,250,2012-11-27 22:35:00
5:15 PM,35.6,23.0,60,30.18,10.0,West,6.9,-,N/A,,Clear,260,2012-11-27 23:15:00
5:35 PM,32.0,23.0,69,30.19,10.0,WNW,5.8,-,N/A,,Clear,300,2012-11-27 23:35:00
5:55 PM,32.0,23.0,69,30.19,10.0,WNW,5.8,-,N/A,,Clear,300,2012-11-27 23:55:00
6:15 PM,32.0,23.0,69,30.20,10.0,NW,6.9,-,N/A,,Clear,320,2012-11-28 00:15:00
6:55 PM,30.2,24.8,80,30.21,10.0,NW,9.2,-,N/A,,Clear,320,2012-11-28 00:55:00
7:15 PM,30.2,24.8,80,30.22,10.0,NW,8.1,-,N/A,,Clear,320,2012-11-28 01:15:00
7:35 PM,28.4,23.0,80,30.22,10.0,NNW,9.2,-,N/A,,Clear,330,2012-11-28 01:35:00
7:55 PM,26.6,23.0,86,30.23,10.0,NW,8.1,-,N/A,,Clear,320,2012-11-28 01:55:00
8:15 PM,28.4,23.0,80,30.24,10.0,NW,6.9,-,N/A,,Clear,320,2012-11-28 02:15:00
8:35 PM,24.8,21.2,86,30.25,10.0,NW,9.2,-,N/A,,Clear,320,2012-11-28 02:35:00
8:55 PM,26.6,23.0,86,30.26,10.0,NW,9.2,-,N/A,,Clear,320,2012-11-28 02:55:00
9:15 PM,26.6,23.0,86,30.26,10.0,NW,8.1,-,N/A,,Clear,320,2012-11-28 03:15:00
9:35 PM,24.8,21.2,86,30.26,10.0,WNW,8.1,-,N/A,,Clear,290,2012-11-28 03:35:00
9:55 PM,26.6,23.0,86,30.27,10.0,NW,9.2,-,N/A,,Clear,320,2012-11-28 03:55:00
10:15 PM,24.8,21.2,86,30.27,10.0,NW,9.2,-,N/A,,Clear,310,2012-11-28 04:15:00
10:35 PM,26.6,21.2,80,30.28,10.0,NW,10.4,-,N/A,,Clear,310,2012-11-28 04:35:00
10:55 PM,24.8,19.4,80,30.29,10.0,WNW,8.1,-,N/A,,Clear,300,2012-11-28 04:55:00
11:15 PM,24.8,21.2,86,30.28,10.0,WNW,4.6,-,N/A,,Clear,300,2012-11-28 05:15:00
11:35 PM,24.8,19.4,80,30.29,10.0,NW,6.9,-,N/A,,Clear,310,2012-11-28 05:35:00
11:55 PM,23.0,19.4,86,30.30,10.0,NW,6.9,-,N/A,,Clear,320,2012-11-28 05:55:00